sensor_id;sensor_type;location;lat;lon;timestamp;temperature;humidity
23359;DHT22;11851;50.796;4.372;2022-10-16T00:01:20;16.50;99.90
23359;DHT22;11851;50.796;4.372;2022-10-16T00:03:46;16.50;99.90
23359;DHT22;11851;50.796;4.372;2022-10-16T00:06:14;16.50;99.90
23359;DHT22;11851;50.796;4.372;2022-10-16T00:08:40;16.40;99.90
23359;DHT22;11851;50.796;4.372;2022-10-16T00:11:12;16.30;99.90
23359;DHT22;11851;50.796;4.372;2022-10-16T00:13:40;16.30;99.90
23359;DHT22;11851;50.796;4.372;2022-10-16T00:16:07;16.30;99.90
23359;DHT22;11851;50.796;4.372;2022-10-16T00:18:33;16.40;99.90
23359;DHT22;11851;50.796;4.372;2022-10-16T00:21:09;16.40;99.90
23359;DHT22;11851;50.796;4.372;2022-10-16T00:23:36;16.40;99.90
23359;DHT22;11851;50.796;4.372;2022-10-16T00:26:04;16.40;99.90
23359;DHT22;11851;50.796;4.372;2022-10-16T00:28:30;16.20;99.90
23359;DHT22;11851;50.796;4.372;2022-10-16T00:30:57;16.20;99.90
23359;DHT22;11851;50.796;4.372;2022-10-16T00:33:23;16.40;99.90
23359;DHT22;11851;50.796;4.372;2022-10-16T00:35:48;16.30;99.90
23359;DHT22;11851;50.796;4.372;2022-10-16T00:38:14;16.20;99.90
23359;DHT22;11851;50.796;4.372;2022-10-16T00:40:40;16.20;99.90
23359;DHT22;11851;50.796;4.372;2022-10-16T00:43:14;16.30;99.90
23359;DHT22;11851;50.796;4.372;2022-10-16T00:45:57;16.20;99.90
23359;DHT22;11851;50.796;4.372;2022-10-16T00:48:22;16.30;99.90
23359;DHT22;11851;50.796;4.372;2022-10-16T00:50:48;16.40;99.90
23359;DHT22;11851;50.796;4.372;2022-10-16T00:53:14;16.30;99.90
23359;DHT22;11851;50.796;4.372;2022-10-16T00:55:41;16.20;99.90
23359;DHT22;11851;50.796;4.372;2022-10-16T00:58:07;16.10;99.90
23359;DHT22;11851;50.796;4.372;2022-10-16T01:00:32;16.00;99.90
23359;DHT22;11851;50.796;4.372;2022-10-16T01:03:00;16.00;99.90
23359;DHT22;11851;50.796;4.372;2022-10-16T01:05:35;16.10;99.90
23359;DHT22;11851;50.796;4.372;2022-10-16T01:08:12;16.10;99.90
23359;DHT22;11851;50.796;4.372;2022-10-16T01:11:01;16.10;99.90
23359;DHT22;11851;50.796;4.372;2022-10-16T01:13:35;16.10;99.90
23359;DHT22;11851;50.796;4.372;2022-10-16T01:16:15;16.10;99.90
23359;DHT22;11851;50.796;4.372;2022-10-16T01:18:57;16.10;99.90
23359;DHT22;11851;50.796;4.372;2022-10-16T01:21:29;16.10;99.90
23359;DHT22;11851;50.796;4.372;2022-10-16T01:30:07;15.90;99.90
23359;DHT22;11851;50.796;4.372;2022-10-16T01:32:46;15.90;99.90
23359;DHT22;11851;50.796;4.372;2022-10-16T01:35:29;16.00;99.90
23359;DHT22;11851;50.796;4.372;2022-10-16T01:38:25;16.00;99.90
23359;DHT22;11851;50.796;4.372;2022-10-16T01:40:57;16.00;99.90
23359;DHT22;11851;50.796;4.372;2022-10-16T01:43:56;16.00;99.90
23359;DHT22;11851;50.796;4.372;2022-10-16T01:46:24;16.10;99.90
23359;DHT22;11851;50.796;4.372;2022-10-16T01:48:52;16.10;99.90
23359;DHT22;11851;50.796;4.372;2022-10-16T01:51:19;16.10;99.90
23359;DHT22;11851;50.796;4.372;2022-10-16T01:53:49;16.00;99.90
23359;DHT22;11851;50.796;4.372;2022-10-16T01:56:17;16.00;99.90
23359;DHT22;11851;50.796;4.372;2022-10-16T01:59:06;16.10;99.90
23359;DHT22;11851;50.796;4.372;2022-10-16T02:01:35;16.00;99.90
23359;DHT22;11851;50.796;4.372;2022-10-16T02:04:09;15.90;99.90
23359;DHT22;11851;50.796;4.372;2022-10-16T02:06:37;16.00;99.90
23359;DHT22;11851;50.796;4.372;2022-10-16T02:09:02;15.90;99.90
23359;DHT22;11851;50.796;4.372;2022-10-16T02:11:28;16.00;99.90
23359;DHT22;11851;50.796;4.372;2022-10-16T02:14:00;16.00;99.90
23359;DHT22;11851;50.796;4.372;2022-10-16T02:16:34;16.00;99.90
23359;DHT22;11851;50.796;4.372;2022-10-16T02:19:00;15.90;99.90
23359;DHT22;11851;50.796;4.372;2022-10-16T02:21:29;15.90;99.90
23359;DHT22;11851;50.796;4.372;2022-10-16T02:26:57;16.00;99.90
23359;DHT22;11851;50.796;4.372;2022-10-16T02:29:25;15.90;99.90
23359;DHT22;11851;50.796;4.372;2022-10-16T02:31:59;15.80;99.90
23359;DHT22;11851;50.796;4.372;2022-10-16T02:34:28;15.90;99.90
23359;DHT22;11851;50.796;4.372;2022-10-16T02:36:56;15.90;99.90
23359;DHT22;11851;50.796;4.372;2022-10-16T02:39:24;15.90;99.90
23359;DHT22;11851;50.796;4.372;2022-10-16T02:41:50;15.80;99.90
23359;DHT22;11851;50.796;4.372;2022-10-16T02:44:15;15.80;99.90
23359;DHT22;11851;50.796;4.372;2022-10-16T02:46:41;15.90;99.90
23359;DHT22;11851;50.796;4.372;2022-10-16T02:49:06;15.90;99.90
23359;DHT22;11851;50.796;4.372;2022-10-16T02:51:32;15.90;99.90
23359;DHT22;11851;50.796;4.372;2022-10-16T02:53:58;16.00;99.90
23359;DHT22;11851;50.796;4.372;2022-10-16T02:56:23;15.90;99.90
23359;DHT22;11851;50.796;4.372;2022-10-16T02:58:49;15.90;99.90
23359;DHT22;11851;50.796;4.372;2022-10-16T03:01:15;15.80;99.90
23359;DHT22;11851;50.796;4.372;2022-10-16T03:03:42;15.70;99.90
23359;DHT22;11851;50.796;4.372;2022-10-16T03:06:08;15.70;99.90
23359;DHT22;11851;50.796;4.372;2022-10-16T03:08:33;15.70;99.90
23359;DHT22;11851;50.796;4.372;2022-10-16T03:10:59;15.70;99.90
23359;DHT22;11851;50.796;4.372;2022-10-16T03:13:25;15.80;99.90
23359;DHT22;11851;50.796;4.372;2022-10-16T03:15:50;15.70;99.90
23359;DHT22;11851;50.796;4.372;2022-10-16T03:18:16;15.70;99.90
23359;DHT22;11851;50.796;4.372;2022-10-16T03:20:45;15.80;99.90
23359;DHT22;11851;50.796;4.372;2022-10-16T03:23:11;15.80;99.90
23359;DHT22;11851;50.796;4.372;2022-10-16T03:25:36;15.80;99.90
23359;DHT22;11851;50.796;4.372;2022-10-16T03:28:03;15.90;99.90
23359;DHT22;11851;50.796;4.372;2022-10-16T03:30:28;15.90;99.90
23359;DHT22;11851;50.796;4.372;2022-10-16T03:32:54;15.80;99.90
23359;DHT22;11851;50.796;4.372;2022-10-16T03:35:24;15.90;99.90
23359;DHT22;11851;50.796;4.372;2022-10-16T03:37:50;15.90;99.90
23359;DHT22;11851;50.796;4.372;2022-10-16T03:40:16;16.00;99.90
23359;DHT22;11851;50.796;4.372;2022-10-16T03:42:43;15.90;99.90
23359;DHT22;11851;50.796;4.372;2022-10-16T03:45:09;15.90;99.90
23359;DHT22;11851;50.796;4.372;2022-10-16T03:47:35;15.90;99.90
23359;DHT22;11851;50.796;4.372;2022-10-16T03:50:01;16.00;99.90
23359;DHT22;11851;50.796;4.372;2022-10-16T03:52:27;15.90;99.90
23359;DHT22;11851;50.796;4.372;2022-10-16T03:54:52;16.00;99.90
23359;DHT22;11851;50.796;4.372;2022-10-16T03:57:18;16.00;99.90
23359;DHT22;11851;50.796;4.372;2022-10-16T03:59:44;15.90;99.90
23359;DHT22;11851;50.796;4.372;2022-10-16T04:02:09;15.80;99.90
23359;DHT22;11851;50.796;4.372;2022-10-16T04:04:35;15.80;99.90
23359;DHT22;11851;50.796;4.372;2022-10-16T04:07:01;15.80;99.90
23359;DHT22;11851;50.796;4.372;2022-10-16T04:09:27;15.80;99.90
23359;DHT22;11851;50.796;4.372;2022-10-16T04:11:52;15.80;99.90
23359;DHT22;11851;50.796;4.372;2022-10-16T04:14:18;15.80;99.90
23359;DHT22;11851;50.796;4.372;2022-10-16T04:16:44;15.70;99.90
23359;DHT22;11851;50.796;4.372;2022-10-16T04:19:10;15.70;99.90
23359;DHT22;11851;50.796;4.372;2022-10-16T04:21:36;15.70;99.90
23359;DHT22;11851;50.796;4.372;2022-10-16T04:24:02;15.60;99.90
23359;DHT22;11851;50.796;4.372;2022-10-16T04:26:28;15.70;99.90
23359;DHT22;11851;50.796;4.372;2022-10-16T04:28:54;15.70;99.90
23359;DHT22;11851;50.796;4.372;2022-10-16T04:31:20;15.80;99.90
23359;DHT22;11851;50.796;4.372;2022-10-16T04:33:46;15.80;99.90
23359;DHT22;11851;50.796;4.372;2022-10-16T04:36:12;15.70;99.90
23359;DHT22;11851;50.796;4.372;2022-10-16T04:38:37;15.70;99.90
23359;DHT22;11851;50.796;4.372;2022-10-16T04:41:07;15.80;99.90
23359;DHT22;11851;50.796;4.372;2022-10-16T04:43:34;15.80;99.90
23359;DHT22;11851;50.796;4.372;2022-10-16T04:46:00;15.80;99.90
23359;DHT22;11851;50.796;4.372;2022-10-16T04:48:26;15.80;99.90
23359;DHT22;11851;50.796;4.372;2022-10-16T04:50:51;15.70;99.90
23359;DHT22;11851;50.796;4.372;2022-10-16T04:53:17;15.60;99.90
23359;DHT22;11851;50.796;4.372;2022-10-16T04:55:43;15.60;99.90
23359;DHT22;11851;50.796;4.372;2022-10-16T04:58:09;15.70;99.90
23359;DHT22;11851;50.796;4.372;2022-10-16T05:00:35;15.70;99.90
23359;DHT22;11851;50.796;4.372;2022-10-16T05:03:00;15.70;99.90
23359;DHT22;11851;50.796;4.372;2022-10-16T05:05:27;15.70;99.90
23359;DHT22;11851;50.796;4.372;2022-10-16T05:07:53;15.70;99.90
23359;DHT22;11851;50.796;4.372;2022-10-16T05:10:19;15.70;99.90
23359;DHT22;11851;50.796;4.372;2022-10-16T05:12:46;15.70;99.90
23359;DHT22;11851;50.796;4.372;2022-10-16T05:15:11;15.60;99.90
23359;DHT22;11851;50.796;4.372;2022-10-16T05:17:37;15.70;99.90
23359;DHT22;11851;50.796;4.372;2022-10-16T05:20:03;15.70;99.90
23359;DHT22;11851;50.796;4.372;2022-10-16T05:22:29;15.70;99.90
23359;DHT22;11851;50.796;4.372;2022-10-16T05:24:55;15.60;99.90
23359;DHT22;11851;50.796;4.372;2022-10-16T05:27:20;15.50;99.90
23359;DHT22;11851;50.796;4.372;2022-10-16T05:29:47;15.60;99.90
23359;DHT22;11851;50.796;4.372;2022-10-16T05:32:18;15.40;99.90
23359;DHT22;11851;50.796;4.372;2022-10-16T05:34:44;15.50;99.90
23359;DHT22;11851;50.796;4.372;2022-10-16T05:37:10;15.50;99.90
23359;DHT22;11851;50.796;4.372;2022-10-16T05:39:37;15.50;99.90
23359;DHT22;11851;50.796;4.372;2022-10-16T05:42:03;15.40;99.90
23359;DHT22;11851;50.796;4.372;2022-10-16T05:44:29;15.40;99.90
23359;DHT22;11851;50.796;4.372;2022-10-16T05:46:55;15.60;99.90
23359;DHT22;11851;50.796;4.372;2022-10-16T05:49:20;15.50;99.90
23359;DHT22;11851;50.796;4.372;2022-10-16T05:51:46;15.60;99.90
23359;DHT22;11851;50.796;4.372;2022-10-16T05:54:12;15.60;99.90
23359;DHT22;11851;50.796;4.372;2022-10-16T05:56:37;15.50;99.90
23359;DHT22;11851;50.796;4.372;2022-10-16T05:59:04;15.50;99.90
23359;DHT22;11851;50.796;4.372;2022-10-16T06:01:29;15.40;99.90
23359;DHT22;11851;50.796;4.372;2022-10-16T06:03:56;15.50;99.90
23359;DHT22;11851;50.796;4.372;2022-10-16T06:06:26;15.50;99.90
23359;DHT22;11851;50.796;4.372;2022-10-16T06:08:54;15.50;99.90
23359;DHT22;11851;50.796;4.372;2022-10-16T06:11:22;15.50;99.90
23359;DHT22;11851;50.796;4.372;2022-10-16T06:13:55;15.50;99.90
23359;DHT22;11851;50.796;4.372;2022-10-16T06:16:23;15.50;99.90
23359;DHT22;11851;50.796;4.372;2022-10-16T06:18:51;15.50;99.90
23359;DHT22;11851;50.796;4.372;2022-10-16T06:21:18;15.40;99.90
23359;DHT22;11851;50.796;4.372;2022-10-16T06:23:45;15.40;99.90
23359;DHT22;11851;50.796;4.372;2022-10-16T06:26:16;15.30;99.90
23359;DHT22;11851;50.796;4.372;2022-10-16T06:28:41;15.40;99.90
23359;DHT22;11851;50.796;4.372;2022-10-16T06:31:09;15.40;99.90
23359;DHT22;11851;50.796;4.372;2022-10-16T06:33:35;15.50;99.90
23359;DHT22;11851;50.796;4.372;2022-10-16T06:36:10;15.50;99.90
23359;DHT22;11851;50.796;4.372;2022-10-16T06:38:37;15.50;99.90
23359;DHT22;11851;50.796;4.372;2022-10-16T06:41:04;15.50;99.90
23359;DHT22;11851;50.796;4.372;2022-10-16T06:43:30;15.50;99.90
23359;DHT22;11851;50.796;4.372;2022-10-16T06:46:04;15.60;99.90
23359;DHT22;11851;50.796;4.372;2022-10-16T06:48:30;15.70;99.90
23359;DHT22;11851;50.796;4.372;2022-10-16T06:51:00;15.70;99.90
23359;DHT22;11851;50.796;4.372;2022-10-16T06:53:29;15.70;99.90
23359;DHT22;11851;50.796;4.372;2022-10-16T06:55:55;15.80;99.90
23359;DHT22;11851;50.796;4.372;2022-10-16T06:58:21;15.80;99.90
23359;DHT22;11851;50.796;4.372;2022-10-16T07:00:47;15.90;99.90
23359;DHT22;11851;50.796;4.372;2022-10-16T07:03:13;15.90;99.90
23359;DHT22;11851;50.796;4.372;2022-10-16T07:05:40;16.00;99.90
23359;DHT22;11851;50.796;4.372;2022-10-16T07:08:06;16.00;99.90
23359;DHT22;11851;50.796;4.372;2022-10-16T07:10:32;16.10;99.90
23359;DHT22;11851;50.796;4.372;2022-10-16T07:12:58;16.10;99.90
23359;DHT22;11851;50.796;4.372;2022-10-16T07:15:25;16.00;99.90
23359;DHT22;11851;50.796;4.372;2022-10-16T07:17:51;16.10;99.90
23359;DHT22;11851;50.796;4.372;2022-10-16T07:20:17;16.20;99.90
23359;DHT22;11851;50.796;4.372;2022-10-16T07:22:42;16.10;99.90
23359;DHT22;11851;50.796;4.372;2022-10-16T07:25:08;16.10;99.90
23359;DHT22;11851;50.796;4.372;2022-10-16T07:27:34;16.10;99.90
23359;DHT22;11851;50.796;4.372;2022-10-16T07:30:00;16.10;99.90
23359;DHT22;11851;50.796;4.372;2022-10-16T07:32:26;16.10;99.90
23359;DHT22;11851;50.796;4.372;2022-10-16T07:34:52;16.10;99.90
23359;DHT22;11851;50.796;4.372;2022-10-16T07:37:18;16.20;99.90
23359;DHT22;11851;50.796;4.372;2022-10-16T07:39:44;16.20;99.90
23359;DHT22;11851;50.796;4.372;2022-10-16T07:42:09;16.30;99.90
23359;DHT22;11851;50.796;4.372;2022-10-16T07:44:35;16.30;99.90
23359;DHT22;11851;50.796;4.372;2022-10-16T07:47:00;16.40;99.90
23359;DHT22;11851;50.796;4.372;2022-10-16T07:49:26;16.40;99.90
23359;DHT22;11851;50.796;4.372;2022-10-16T07:51:52;16.50;99.90
23359;DHT22;11851;50.796;4.372;2022-10-16T07:54:17;16.50;99.90
23359;DHT22;11851;50.796;4.372;2022-10-16T07:56:43;16.40;99.90
23359;DHT22;11851;50.796;4.372;2022-10-16T07:59:09;16.40;99.90
23359;DHT22;11851;50.796;4.372;2022-10-16T08:01:34;16.30;99.90
23359;DHT22;11851;50.796;4.372;2022-10-16T08:04:00;16.30;99.90
23359;DHT22;11851;50.796;4.372;2022-10-16T08:06:25;16.40;99.90
23359;DHT22;11851;50.796;4.372;2022-10-16T08:08:51;16.50;99.90
23359;DHT22;11851;50.796;4.372;2022-10-16T08:11:17;16.60;99.90
23359;DHT22;11851;50.796;4.372;2022-10-16T08:13:43;16.60;99.90
23359;DHT22;11851;50.796;4.372;2022-10-16T08:16:08;16.60;99.90
23359;DHT22;11851;50.796;4.372;2022-10-16T08:18:36;16.80;99.90
23359;DHT22;11851;50.796;4.372;2022-10-16T08:21:02;16.80;99.90
23359;DHT22;11851;50.796;4.372;2022-10-16T08:23:28;16.80;99.90
23359;DHT22;11851;50.796;4.372;2022-10-16T08:25:55;16.90;99.90
23359;DHT22;11851;50.796;4.372;2022-10-16T08:28:21;16.90;99.90
23359;DHT22;11851;50.796;4.372;2022-10-16T08:30:47;16.90;99.90
23359;DHT22;11851;50.796;4.372;2022-10-16T08:33:13;17.00;99.90
23359;DHT22;11851;50.796;4.372;2022-10-16T08:35:39;17.10;99.90
23359;DHT22;11851;50.796;4.372;2022-10-16T08:38:05;17.10;99.90
23359;DHT22;11851;50.796;4.372;2022-10-16T08:40:33;17.00;99.90
23359;DHT22;11851;50.796;4.372;2022-10-16T08:43:21;17.10;99.90
23359;DHT22;11851;50.796;4.372;2022-10-16T08:46:15;17.10;99.90
23359;DHT22;11851;50.796;4.372;2022-10-16T08:48:46;17.30;99.90
23359;DHT22;11851;50.796;4.372;2022-10-16T08:51:19;17.40;99.90
23359;DHT22;11851;50.796;4.372;2022-10-16T08:54:03;17.50;99.90
23359;DHT22;11851;50.796;4.372;2022-10-16T08:56:28;17.50;99.90
23359;DHT22;11851;50.796;4.372;2022-10-16T08:58:54;17.50;99.90
23359;DHT22;11851;50.796;4.372;2022-10-16T09:01:35;17.50;99.90
23359;DHT22;11851;50.796;4.372;2022-10-16T09:13:15;17.60;99.90
23359;DHT22;11851;50.796;4.372;2022-10-16T09:16:14;17.60;99.90
23359;DHT22;11851;50.796;4.372;2022-10-16T09:18:54;17.60;99.90
23359;DHT22;11851;50.796;4.372;2022-10-16T09:21:28;17.70;99.90
23359;DHT22;11851;50.796;4.372;2022-10-16T09:24:20;17.70;99.90
23359;DHT22;11851;50.796;4.372;2022-10-16T09:26:45;17.80;99.90
23359;DHT22;11851;50.796;4.372;2022-10-16T09:29:13;17.80;99.90
23359;DHT22;11851;50.796;4.372;2022-10-16T09:31:39;18.00;99.90
23359;DHT22;11851;50.796;4.372;2022-10-16T09:34:08;18.00;99.90
23359;DHT22;11851;50.796;4.372;2022-10-16T09:36:42;18.00;99.90
23359;DHT22;11851;50.796;4.372;2022-10-16T09:39:10;18.00;99.90
23359;DHT22;11851;50.796;4.372;2022-10-16T09:41:43;18.00;99.90
23359;DHT22;11851;50.796;4.372;2022-10-16T09:44:30;18.20;99.90
23359;DHT22;11851;50.796;4.372;2022-10-16T09:47:14;18.30;99.90
23359;DHT22;11851;50.796;4.372;2022-10-16T09:50:01;18.30;99.90
23359;DHT22;11851;50.796;4.372;2022-10-16T09:52:32;18.20;99.90
23359;DHT22;11851;50.796;4.372;2022-10-16T09:55:00;18.20;99.90
23359;DHT22;11851;50.796;4.372;2022-10-16T09:57:26;18.20;99.90
23359;DHT22;11851;50.796;4.372;2022-10-16T09:59:54;18.30;99.90
23359;DHT22;11851;50.796;4.372;2022-10-16T10:02:35;18.30;99.90
23359;DHT22;11851;50.796;4.372;2022-10-16T10:05:02;18.50;99.90
23359;DHT22;11851;50.796;4.372;2022-10-16T10:07:39;18.60;99.90
23359;DHT22;11851;50.796;4.372;2022-10-16T10:10:18;18.40;99.90
23359;DHT22;11851;50.796;4.372;2022-10-16T10:12:45;18.50;99.90
23359;DHT22;11851;50.796;4.372;2022-10-16T10:15:12;18.70;99.90
23359;DHT22;11851;50.796;4.372;2022-10-16T10:17:51;18.80;99.90
23359;DHT22;11851;50.796;4.372;2022-10-16T10:20:30;19.00;99.90
23359;DHT22;11851;50.796;4.372;2022-10-16T10:22:58;19.00;99.90
23359;DHT22;11851;50.796;4.372;2022-10-16T10:39:04;19.40;99.90
23359;DHT22;11851;50.796;4.372;2022-10-16T10:50:39;19.50;99.90
23359;DHT22;11851;50.796;4.372;2022-10-16T10:53:34;19.50;99.90
23359;DHT22;11851;50.796;4.372;2022-10-16T10:59:25;19.40;99.90
23359;DHT22;11851;50.796;4.372;2022-10-16T11:01:57;19.50;99.90
23359;DHT22;11851;50.796;4.372;2022-10-16T11:07:21;19.50;99.90
23359;DHT22;11851;50.796;4.372;2022-10-16T11:09:57;19.30;99.90
23359;DHT22;11851;50.796;4.372;2022-10-16T11:12:39;19.30;99.90
23359;DHT22;11851;50.796;4.372;2022-10-16T11:15:14;19.30;99.90
23359;DHT22;11851;50.796;4.372;2022-10-16T11:17:57;19.40;99.90
23359;DHT22;11851;50.796;4.372;2022-10-16T11:20:32;19.50;99.90
23359;DHT22;11851;50.796;4.372;2022-10-16T11:25:43;19.70;99.90
23359;DHT22;11851;50.796;4.372;2022-10-16T11:28:23;19.70;99.90
23359;DHT22;11851;50.796;4.372;2022-10-16T11:31:11;19.80;99.90
23359;DHT22;11851;50.796;4.372;2022-10-16T11:33:44;19.90;99.90
23359;DHT22;11851;50.796;4.372;2022-10-16T11:36:16;20.00;99.90
23359;DHT22;11851;50.796;4.372;2022-10-16T11:41:42;20.20;99.90
23359;DHT22;11851;50.796;4.372;2022-10-16T11:46:45;20.50;99.90
23359;DHT22;11851;50.796;4.372;2022-10-16T11:49:21;20.50;99.90
23359;DHT22;11851;50.796;4.372;2022-10-16T11:52:07;20.50;99.90
23359;DHT22;11851;50.796;4.372;2022-10-16T11:54:53;20.60;99.90
23359;DHT22;11851;50.796;4.372;2022-10-16T11:57:36;20.70;99.90
23359;DHT22;11851;50.796;4.372;2022-10-16T12:00:10;20.80;99.90
23359;DHT22;11851;50.796;4.372;2022-10-16T12:08:14;21.10;99.90
23359;DHT22;11851;50.796;4.372;2022-10-16T12:10:45;21.20;99.90
23359;DHT22;11851;50.796;4.372;2022-10-16T12:13:32;21.30;99.90
23359;DHT22;11851;50.796;4.372;2022-10-16T12:18:40;21.50;99.90
23359;DHT22;11851;50.796;4.372;2022-10-16T12:21:06;21.60;99.90
23359;DHT22;11851;50.796;4.372;2022-10-16T12:23:47;21.70;99.90
23359;DHT22;11851;50.796;4.372;2022-10-16T12:26:13;21.80;99.90
23359;DHT22;11851;50.796;4.372;2022-10-16T12:28:39;21.80;99.90
23359;DHT22;11851;50.796;4.372;2022-10-16T12:31:07;21.80;99.90
23359;DHT22;11851;50.796;4.372;2022-10-16T12:33:52;21.80;99.90
23359;DHT22;11851;50.796;4.372;2022-10-16T12:36:32;21.80;99.90
23359;DHT22;11851;50.796;4.372;2022-10-16T12:39:00;21.90;99.90
23359;DHT22;11851;50.796;4.372;2022-10-16T12:43:57;22.00;99.90
23359;DHT22;11851;50.796;4.372;2022-10-16T12:46:44;22.00;99.90
23359;DHT22;11851;50.796;4.372;2022-10-16T12:51:38;22.00;99.90
23359;DHT22;11851;50.796;4.372;2022-10-16T13:10:03;21.70;99.90
23359;DHT22;11851;50.796;4.372;2022-10-16T13:13:00;21.80;99.90
23359;DHT22;11851;50.796;4.372;2022-10-16T13:23:54;22.20;99.90
23359;DHT22;11851;50.796;4.372;2022-10-16T13:29:12;22.40;99.90
23359;DHT22;11851;50.796;4.372;2022-10-16T13:31:39;22.50;99.90
23359;DHT22;11851;50.796;4.372;2022-10-16T13:34:06;22.60;99.90
23359;DHT22;11851;50.796;4.372;2022-10-16T13:37:15;22.90;99.90
23359;DHT22;11851;50.796;4.372;2022-10-16T13:39:41;23.40;99.90
23359;DHT22;11851;50.796;4.372;2022-10-16T13:42:25;23.60;99.90
23359;DHT22;11851;50.796;4.372;2022-10-16T13:44:53;23.50;99.90
23359;DHT22;11851;50.796;4.372;2022-10-16T13:47:22;23.50;99.90
23359;DHT22;11851;50.796;4.372;2022-10-16T13:50:00;23.20;99.90
23359;DHT22;11851;50.796;4.372;2022-10-16T13:52:26;23.10;99.90
23359;DHT22;11851;50.796;4.372;2022-10-16T13:54:53;22.90;99.90
23359;DHT22;11851;50.796;4.372;2022-10-16T13:57:23;22.90;99.90
23359;DHT22;11851;50.796;4.372;2022-10-16T13:59:50;22.80;99.90
23359;DHT22;11851;50.796;4.372;2022-10-16T14:04:42;22.80;99.90
23359;DHT22;11851;50.796;4.372;2022-10-16T14:07:34;22.70;99.90
23359;DHT22;11851;50.796;4.372;2022-10-16T14:10:03;22.70;99.90
23359;DHT22;11851;50.796;4.372;2022-10-16T14:12:29;22.60;99.90
23359;DHT22;11851;50.796;4.372;2022-10-16T14:14:57;22.60;99.90
23359;DHT22;11851;50.796;4.372;2022-10-16T14:17:28;22.50;99.90
23359;DHT22;11851;50.796;4.372;2022-10-16T14:19:57;22.40;99.90
23359;DHT22;11851;50.796;4.372;2022-10-16T14:24:55;22.30;99.90
23359;DHT22;11851;50.796;4.372;2022-10-16T14:27:33;22.30;99.90
23359;DHT22;11851;50.796;4.372;2022-10-16T14:32:41;22.30;99.90
23359;DHT22;11851;50.796;4.372;2022-10-16T14:35:36;22.40;99.90
23359;DHT22;11851;50.796;4.372;2022-10-16T14:38:03;22.50;99.90
23359;DHT22;11851;50.796;4.372;2022-10-16T14:40:38;22.60;99.90
23359;DHT22;11851;50.796;4.372;2022-10-16T14:43:04;22.70;99.90
23359;DHT22;11851;50.796;4.372;2022-10-16T14:45:33;22.70;99.90
23359;DHT22;11851;50.796;4.372;2022-10-16T14:48:05;22.70;99.90
23359;DHT22;11851;50.796;4.372;2022-10-16T14:50:38;22.80;99.90
23359;DHT22;11851;50.796;4.372;2022-10-16T14:53:11;22.80;99.90
23359;DHT22;11851;50.796;4.372;2022-10-16T14:55:38;22.70;99.90
23359;DHT22;11851;50.796;4.372;2022-10-16T14:58:04;22.70;99.90
23359;DHT22;11851;50.796;4.372;2022-10-16T15:00:30;22.60;99.90
23359;DHT22;11851;50.796;4.372;2022-10-16T15:02:55;22.60;99.90
23359;DHT22;11851;50.796;4.372;2022-10-16T15:05:25;22.60;99.90
23359;DHT22;11851;50.796;4.372;2022-10-16T15:07:53;22.50;99.90
23359;DHT22;11851;50.796;4.372;2022-10-16T15:10:20;22.50;99.90
23359;DHT22;11851;50.796;4.372;2022-10-16T15:12:46;22.40;99.90
23359;DHT22;11851;50.796;4.372;2022-10-16T15:17:46;22.40;99.90
23359;DHT22;11851;50.796;4.372;2022-10-16T15:20:13;22.30;99.90
23359;DHT22;11851;50.796;4.372;2022-10-16T15:22:38;22.20;99.90
23359;DHT22;11851;50.796;4.372;2022-10-16T15:25:41;22.20;99.90
23359;DHT22;11851;50.796;4.372;2022-10-16T15:28:05;22.10;99.90
23359;DHT22;11851;50.796;4.372;2022-10-16T15:30:32;22.00;99.90
23359;DHT22;11851;50.796;4.372;2022-10-16T15:32:58;21.90;99.90
23359;DHT22;11851;50.796;4.372;2022-10-16T15:35:24;21.80;99.90
23359;DHT22;11851;50.796;4.372;2022-10-16T15:37:50;21.70;99.90
23359;DHT22;11851;50.796;4.372;2022-10-16T15:40:17;21.70;99.90
23359;DHT22;11851;50.796;4.372;2022-10-16T15:42:44;21.60;99.90
23359;DHT22;11851;50.796;4.372;2022-10-16T15:45:11;21.50;99.90
23359;DHT22;11851;50.796;4.372;2022-10-16T15:47:37;21.40;99.90
23359;DHT22;11851;50.796;4.372;2022-10-16T15:50:03;21.30;99.90
23359;DHT22;11851;50.796;4.372;2022-10-16T15:52:29;21.20;99.90
23359;DHT22;11851;50.796;4.372;2022-10-16T15:54:57;21.10;99.90
23359;DHT22;11851;50.796;4.372;2022-10-16T15:57:23;21.00;99.90
23359;DHT22;11851;50.796;4.372;2022-10-16T15:59:49;21.00;99.90
23359;DHT22;11851;50.796;4.372;2022-10-16T16:02:15;20.90;99.90
23359;DHT22;11851;50.796;4.372;2022-10-16T16:04:41;20.80;99.90
23359;DHT22;11851;50.796;4.372;2022-10-16T16:07:06;20.80;99.90
23359;DHT22;11851;50.796;4.372;2022-10-16T16:09:35;20.70;99.90
23359;DHT22;11851;50.796;4.372;2022-10-16T16:12:01;20.60;99.90
23359;DHT22;11851;50.796;4.372;2022-10-16T16:14:27;20.60;99.90
23359;DHT22;11851;50.796;4.372;2022-10-16T16:16:56;20.60;99.90
23359;DHT22;11851;50.796;4.372;2022-10-16T16:19:22;20.50;99.90
23359;DHT22;11851;50.796;4.372;2022-10-16T16:21:48;20.40;99.90
23359;DHT22;11851;50.796;4.372;2022-10-16T16:24:14;20.40;99.90
23359;DHT22;11851;50.796;4.372;2022-10-16T16:26:40;20.30;99.90
23359;DHT22;11851;50.796;4.372;2022-10-16T16:29:11;20.30;99.90
23359;DHT22;11851;50.796;4.372;2022-10-16T16:31:39;20.20;99.90
23359;DHT22;11851;50.796;4.372;2022-10-16T16:34:08;20.10;99.90
23359;DHT22;11851;50.796;4.372;2022-10-16T16:36:35;20.20;99.90
23359;DHT22;11851;50.796;4.372;2022-10-16T16:39:02;20.10;99.90
23359;DHT22;11851;50.796;4.372;2022-10-16T16:41:29;20.10;99.90
23359;DHT22;11851;50.796;4.372;2022-10-16T16:44:01;20.10;99.90
23359;DHT22;11851;50.796;4.372;2022-10-16T16:46:27;20.00;99.90
23359;DHT22;11851;50.796;4.372;2022-10-16T16:48:52;20.00;99.90
23359;DHT22;11851;50.796;4.372;2022-10-16T16:51:21;20.00;99.90
23359;DHT22;11851;50.796;4.372;2022-10-16T16:53:49;20.00;99.90
23359;DHT22;11851;50.796;4.372;2022-10-16T16:56:15;19.90;99.90
23359;DHT22;11851;50.796;4.372;2022-10-16T16:58:41;19.90;99.90
23359;DHT22;11851;50.796;4.372;2022-10-16T17:01:09;19.80;99.90
23359;DHT22;11851;50.796;4.372;2022-10-16T17:03:35;19.70;99.90
23359;DHT22;11851;50.796;4.372;2022-10-16T17:06:04;19.70;99.90
23359;DHT22;11851;50.796;4.372;2022-10-16T17:08:30;19.70;99.90
23359;DHT22;11851;50.796;4.372;2022-10-16T17:10:57;19.70;99.90
23359;DHT22;11851;50.796;4.372;2022-10-16T17:13:25;19.70;99.90
23359;DHT22;11851;50.796;4.372;2022-10-16T17:15:51;19.70;99.90
23359;DHT22;11851;50.796;4.372;2022-10-16T17:18:19;19.60;99.90
23359;DHT22;11851;50.796;4.372;2022-10-16T17:20:45;19.60;99.90
23359;DHT22;11851;50.796;4.372;2022-10-16T17:23:11;19.50;99.90
23359;DHT22;11851;50.796;4.372;2022-10-16T17:25:40;19.50;99.90
23359;DHT22;11851;50.796;4.372;2022-10-16T17:28:08;19.40;99.90
23359;DHT22;11851;50.796;4.372;2022-10-16T17:30:37;19.40;99.90